Whitman, NE (69366)

5:01 AM MDT on September 18, 2014 (GMT -0600)
Thedford | Change Station
CLOSE
Current Station
Airport
Location: Thedford,
Elevation: 2927 ft
Nearby Weather Stations
Active Advisory: Special Statement

Elev 2927 ft 41.96 °N, 100.57 °W | Updated 6 minutes ago

Fog
Fog
59 °F
Feels Like 59 °F
N
5
Wind Variable Wind from SE

Today
High -- | Low -- °F
--% Chance of Precip.
Yesterday
High -- | Low -- °F
Precip. -- in
6:29 AM 6:50 PM
Waning Crescent, 28% visible
Pressure 29.98 in
Visibility 1.0 miles
Clouds Overcast 200 ft
Dew Point 58 °F
Humidity 99%
Rainfall 0.00 in
Snow Depth Not available.
UV 0 out of 12
Pollen 5.20 out of 12
Air Quality Not available.
Flu Activity Not available.
METAR KTIF 181055Z 14004KT 1SM OVC002 15/15 A2998 RMK AO2 T01480146 PWINO

More Conditions Fewer Conditions

Pressure 29.98 in
Visibility 1.0 miles
Clouds Overcast 200 ft
Dew Point 58 °F
Humidity 99%
Rainfall 0.00 in
Snow Depth Not available.
UV 0 out of 12
Pollen 5.20 out of 12
Air Quality Not available.
Flu Activity Not available.
METAR KTIF 181055Z 14004KT 1SM OVC002 15/15 A2998 RMK AO2 T01480146 PWINO

More Conditions Fewer Conditions

10-Day Weather Forecast

Almanac

Astronomy

Sep. 18, 2014 Rise Set
Actual Time 6:29 AM MDT 6:50 PM MDT
Civil Twilight 6:01 AM MDT 7:18 PM MDT
Nautical Twilight 5:28 AM MDT 7:50 PM MDT
Astronomical Twilight 4:54 AM MDT 8:24 PM MDT
Moon 1:19 AM MDT 3:46 PM MDT
Length of Visible Light 13h 16m
Length of Day
12h 20m
Tomorrow will be 2m 48s shorter.
Waning Crescent, 28% of the Moon is Illuminated
Today
Waning Crescent
Sep 24
New
Oct 1
First Quarter
Oct 8
Full
Oct 15
Last Quarter

Today's Extremes

State Highs State Lows

Community

WunderPhotos

Upload Photos

1,754,317 photos uploaded!

Nearby

Snow Depth

Station Depth Elevation
No new snow has been reported.

Earthquake Activity

City Distance Mag. Time & Date
No recent earthquake activity has been reported nearby.
Minimum magnitude displayed is 2.5.

Coastal Water Temperatures

Place Temperature
No Stations Reporting

Nearby Weather Stations